Suggestion Search

Define a bounding box (note: it will not wrap North/South over poles). If the range is zero degrees, a bounding box will not be used to constrain the search.

Centered On °   °

Match text in the suggestion title, science rationale or special notes. The search is case-insensitive. % is a wildcard (_ for a single character).

Find
Search

You may select science themes to limit query, otherwise suggestions from all themes will be returned.

Multiple values may be selected (shift + click).

  Rows per page
10,479 records found, displaying 1 to 100.[First/Prev] 1, 2, 3, 4, 5, 6, 7, 8 [Next/Last]
ID Suggestion Title Latitude Longitude Repeat Created Observation ID
151 Zunil Crater rim and interior 7.707 166.231 STEREO 2005-07-22 PSP_001764_1880
152 Continuous ejecta blanket of the Zunil Crater 7.768 166.204 STEREO 2005-07-22 PSP_002186_1880
155 Zone near Zunil Crater with few secondary craters 7.269 165.750 1 2005-08-06 PSP_006577_1875
156 Zone near Zunil Crater with few secondary craters 8.165 166.613 1 2005-08-06 PSP_006722_1880
157 Loose cluster of Zunil Crater secondary craters 1.268 162.920 STEREO 2005-07-23 PSP_003874_1815
158 Cerberus Fossae and diverse morphologies 7.707 164.376 STEREO 2005-07-23 PSP_003241_1880
159 Athabasca Valles flood erosion of impact crater 9.333 155.843 STEREO 2005-07-23 ESP_012959_1895
160 Small Cones Near Elysium Lava Boundary with Medusae Fossae Formation 2.063 144.843 1 2005-07-23 PSP_002411_1820
161 small cones in margin of Medusae FF 2.431 144.182 1 2005-07-23 PSP_003756_1825
164 1-2 kilometer diamter craters on western Elysium Planitia 5.893 145.262 1 2005-07-23 ESP_012788_1860
165 5-kilometer crater and lava flow in western Elysium Planitia 5.302 150.388 1 2005-07-23 ESP_027873_1855
166 Swiss cheese terrain change detection -86.420 314.650 1 2005-07-23 ESP_012784_0935
167 Tooting Crater interior 23.192 207.780 STEREO 2006-02-16 PSP_001538_2035
168 Sapping features east of Tooting Crater 22.156 208.698 STEREO 2005-07-23 PSP_010333_2025
169 Tooting rampart flow front 23.280 208.704 STEREO 2005-07-23 PSP_003714_2030
171 Small meandering channels 39.055 219.428 STEREO 2005-07-23 PSP_003252_2195
175 Light-toned materials on floor of Coprates Chasma -13.371 300.076 1 2005-07-24 ESP_018202_1665
179 Light-toned bedrock on floor of Coprates Chasm -14.294 305.165 1 2005-07-24 ESP_030386_1655
180 Layered mesa in Coprates Chasm -14.434 304.163 STEREO 2005-07-24 PSP_002036_1655
186 Cataracts in Kasei Valles 25.106 298.521 STEREO 2005-07-24 PSP_002814_2055
187 Flow on floor of Kasei Valles 25.206 299.386 1 2005-07-24 PSP_010000_2055
188 Floor of Kasei Valles 25.175 300.169 1 2005-07-24 ESP_030597_2055
192 Flow on Kasei Valles floor 22.102 288.872 1 2005-07-24 ESP_038628_2025
195 Layered terrain near Mawrth Valles 22.753 341.665 STEREO 2005-07-24 PSP_001454_2030
196 bouldery hill in Argyre region -57.459 313.853 1 2005-07-24
199 Small valley of Valles Marineris -13.348 303.280 1 2005-07-25 PSP_002814_1665
238 Depression of floor of Hellas Basin -39.694 74.364 1 2005-07-29 PSP_007253_1400
240 Knobby terrain on Hellas Basin floor -44.469 61.104 1 2005-07-29 PSP_004234_1355
241 High Thermal-Inertia Patch Near Cerberus Fossae 10.173 157.847 1 2005-07-29 PSP_003650_1900
242 Cerberus Fossae with fluvial/volcanic features near Athabasca Vallis head 10.050 157.810 STEREO 2005-07-29 PSP_003650_1900
243 Cerberus Fossae near head of Athabasca Valles 9.979 157.964 STEREO 2006-01-04 ESP_018985_1900
460 Wall of Orson Welles Crater -1.030 314.578 1 2005-08-02 ESP_035594_1790
652 Fissure Vent for Recent Lavas, Parallel Cerberus Fossae 7.850 164.029 1 2005-08-06 PSP_003241_1880
653 Area with greatest drainage density feeding paleolake -9.601 283.252 STEREO 2005-08-06 PSP_005452_1700
655 Crater with exposed layers -17.712 329.078 1 2005-08-06 PSP_008206_1620
661 Crater in Syria Planum with layering -28.139 266.614 1 2005-08-15 PSP_005545_1515
702 Fresh 5-kilometer diameter crater near Ophir Catenae -10.203 301.042 1 2005-10-10 ESP_026773_1695
703 Layered ejecta and rays of 5-kilometer diameter crater near Ophir Catenae -10.193 301.202 1 2005-10-10 ESP_016435_1695
769 Landslides in Ophir Chasma -4.165 288.497 1 2005-10-22 PSP_003131_1755
770 Bedrock in north wall of Ophir Chasma -3.290 288.926 1 2005-10-22
819 Streamlined feature cut by Marte Vallis 11.479 181.060 1 2005-10-30 ESP_027674_1915
820 Short dendritic channels near edge of Marte Vallis 10.629 181.226 1 2005-10-30 ESP_012813_1905
821 Small cataract in Marte Valles 10.070 181.651 1 2005-10-30 ESP_024707_1900
822 Cluster of small impact craters 10.064 181.068 1 2005-10-30 PSP_008119_1900
823 Bright and dark slope streaks 11.101 180.616 1 2005-10-30 ESP_016347_1910
824 Marte Vallis channel and lava flows 11.942 182.843 1 2005-10-30 ESP_057225_1920
825 Sparsely-cratered large crater 1.089 183.223 1 2005-10-30 PSP_004493_1810
826 Medusae Fossae formation contact -5.612 182.308 1 2005-10-30 PSP_006260_1745
1068 McMurdo Crater secondary craters -84.547 0.369 1 2005-12-22 ESP_047607_0955
1069 Intermediate-distance secondary craters from McMurdo Crater -85.230 358.162 1 2005-12-22 PSP_004888_0850
1070 Intermediate-distance secondary craters from McMurdo Crater -84.691 13.791 1 2005-12-22 ESP_022275_0950
1102 Fine layers in central mound of large old crater 11.344 13.473 STEREO 2005-12-23 PSP_006187_1915
1103 Spirit roving region -14.580 175.509 STEREO 2005-12-25 PSP_001513_1655
1105 Small bright-rayed craters in Gusev Crater -14.014 175.230 1 2005-12-25 PSP_008528_1660
1106 Layered deposits in Ma adim Vallis -17.678 177.841 1 2005-12-25 ESP_026527_1620
1108 Fresh rayed crater -23.569 179.254 1 2005-12-25 ESP_025894_1560
1109 small bright-rayed craters -20.130 178.268 1 2005-12-25 ESP_011732_1595
1110 Small bright-rayed craters on Zephyria Tholus -19.621 172.848 1 2005-12-25 ESP_016743_1600
1112 Possible eskers from wet-based glaciers -56.132 315.269 1 2005-12-25 PSP_003183_1235
1114 ridges, layers, or terraces near Hegemone Dorsum -55.457 314.807 STEREO 2005-12-25
1121 Eroded layers just south of Cerberus Fossae. 6.293 173.652 1 2005-12-27
1122 Relatively large primary crater on Elysium Planitia young lavas 7.166 174.409 STEREO 2005-12-27 PSP_003267_1870
1123 Pristine small crater with wind streak 7.210 173.890 1 2005-12-27 ESP_048588_1875
1124 Terraces around edge of Marte Vallis cut by water or lava 9.249 177.341 1 2005-12-27 ESP_013156_1895
1125 Multiple terraces or layers around inselberg in Marte Valles 9.304 178.468 1 2005-12-27 PSP_006682_1895
1126 Relatively deeply eroded portion of Marte Vallis 18.278 185.158 STEREO 2005-12-27 PSP_008567_1985
1127 Flow front of lava flow 17.726 185.501 STEREO 2005-12-27 PSP_002027_1980
1130 Enigmatic fine-scale morphologies in Marte Vallis 21.220 186.741 1 2005-12-27 ESP_012404_2015
1132 Region of enigmatic flows on the western margin of Amazonis Planitia 30.997 184.736 1 2005-12-27 PSP_006919_2115
1133 Crater with gullies and debris mantle and layers exposed in eastern wall 33.858 181.065 STEREO 2005-12-27 PSP_001948_2140
1134 Stratigraphy exposed in the Ceraunius Fossae 33.838 253.856 1 2005-12-27 PSP_009250_2140
1135 Complex flow patterns on north-facing slope 35.252 269.118 1 2005-12-27 PSP_006283_2155
1137 Impact crater cutting wrinkle ridge in eastern Tempe Terra 35.331 299.958 1 2005-12-28 PSP_003104_2155
1138 Fresh crater 43.819 301.535 STEREO 2005-12-28 PSP_005517_2240
1140 Gullies and mass wasting in crater wall (east wall imaged by MOC) 43.769 301.858 1 2005-12-28 ESP_016382_2240
1142 Channel 43.713 305.287 1 2005-12-28
1143 Concentric fill with possible sublimation pits 43.876 309.046 1 2005-12-28 PSP_007099_2240
1146 Gullied slope of 20-kilometer diameter impact crater in Acidalia Planitia 42.656 329.011 STEREO 2005-12-28 ESP_016170_2230
1149 Bedrock outcrops and gullies in Arandas Crater 42.376 344.767 STEREO 2006-01-04 ESP_055122_2225
1150 Fresh 1-km crater east of Faith Crater 43.069 348.799 1 2005-12-28 ESP_056190_2235
1151 Gullies in south-facing slope of crater and exposed bedrock 42.981 354.688 1 2005-12-28 PSP_001493_2235
1155 Pits in southern Ascraeus Mons 7.319 256.098 1 2005-12-28 PSP_007167_1875
1156 3-kilometer diameter crater with good bedrock exposures in upper walls 6.634 259.126 1 2005-12-28 PSP_007892_1865
1157 Fresh 2-km diameter crater 10.756 298.197 1 2005-12-28 ESP_062166_1910
1158 Polygonal ground at edge of fan deposit 11.809 313.312 1 2005-12-29 ESP_012228_1920
1163 Flow-ejecta crater on streamlined mesa in Tiu Valles 13.066 323.693 1 2005-12-29 ESP_045985_1930
1164 Mass Wasting along Slopes of Tiu Valles 13.417 327.439 1 2005-12-29
1167 Pristine flow-ejecta crater with rays seen in THEMIS night infrared images 17.305 335.089 1 2005-12-29 PSP_003894_1975
1169 Slope streaks beginning at stratigraphic layers 5.007 181.447 STEREO 2005-12-30 PSP_007473_1850
1170 Terraces in pass into crater and possible polygons on floor 4.808 180.871 1 2005-12-30 ESP_027740_1850
1171 Pedestal crater and ejecta 7.757 196.176 1 2005-12-30 PSP_003253_1880
1172 Unusual and pristine crater morphology 10.642 224.843 STEREO 2005-12-30 ESP_011717_1910
1173 Polygonal ridges possibly related to fluvial deposits 10.798 212.162 1 2005-12-30 ESP_017348_1910
1184 Channel with rectilinear pattern on floor -61.625 79.226 1 2005-12-30 PSP_006541_1180
1185 High-contrast dust-devil streaks -62.265 71.054 1 2005-12-30 ESP_050135_1175
1187 Gullies in western wall and bedrock layers -57.313 30.710 1 2005-12-30 PSP_006635_1225
1189 Gullies in north-facing wall of crater -50.767 30.258 1 2005-12-30 ESP_013109_1290
1190 Patterned ground on crater floor in Terra Sabaea -21.579 41.130 1 2005-12-30 ESP_013504_1580
1191 Eroded fluvial deposits on crater floor -20.256 42.725 1 2005-12-30 PSP_003417_1595
1192 Impact craters exposing bedrock -21.735 47.306 1 2005-12-30 ESP_027745_1580

Each suggestion is given a unique ID. A stereo suggestion will be made into a pair at the discretion of the Science Theme Lead.

Suggestion title.

Latitudes are expressed in planetocentric degrees.

Longitude are measured in degrees and range east from 0 to 360.

1 for a single suggestion, STEREO for a stereo suggestion, otherwise the number of suggestions in a seasonal or other repeat set.

The date on which the suggestion was created.

If the suggestion has been retired, a link to the observation page.

The username of the suggester.